sensor_id;sensor_type;location;lat;lon;timestamp;pressure;altitude;pressure_sealevel;temperature;humidity
27425;BME280;15244;49.088;11.886;2022-10-04T00:00:09;96533.69;;;12.23;49.87
27425;BME280;15244;49.088;11.886;2022-10-04T00:05:15;96536.38;;;12.16;49.97
27425;BME280;15244;49.088;11.886;2022-10-04T00:10:29;96533.56;;;12.08;50.31
27425;BME280;15244;49.088;11.886;2022-10-04T00:15:35;96530.75;;;12.01;50.15
27425;BME280;15244;49.088;11.886;2022-10-04T00:31:14;96531.66;;;11.82;50.20
27425;BME280;15244;49.088;11.886;2022-10-04T00:41:27;96523.75;;;11.74;51.00
27425;BME280;15244;49.088;11.886;2022-10-04T00:46:31;96530.31;;;11.69;50.94
27425;BME280;15244;49.088;11.886;2022-10-04T00:51:40;96516.63;;;11.65;50.76
27425;BME280;15244;49.088;11.886;2022-10-04T00:56:46;96513.84;;;11.62;50.85
27425;BME280;15244;49.088;11.886;2022-10-04T01:02:01;96520.03;;;11.59;50.73
27425;BME280;15244;49.088;11.886;2022-10-04T01:07:06;96519.22;;;11.55;50.77
27425;BME280;15244;49.088;11.886;2022-10-04T01:12:15;96512.91;;;11.50;50.82
27425;BME280;15244;49.088;11.886;2022-10-04T01:17:19;96505.84;;;11.46;50.39
27425;BME280;15244;49.088;11.886;2022-10-04T01:22:33;96507.31;;;11.40;50.22
27425;BME280;15244;49.088;11.886;2022-10-04T01:32:40;96509.88;;;11.29;50.29
27425;BME280;15244;49.088;11.886;2022-10-04T01:37:45;96499.28;;;11.24;50.73
27425;BME280;15244;49.088;11.886;2022-10-04T01:42:50;96494.94;;;11.19;50.36
27425;BME280;15244;49.088;11.886;2022-10-04T01:48:02;96489.81;;;11.14;50.68
27425;BME280;15244;49.088;11.886;2022-10-04T01:53:12;96487.41;;;11.09;50.67
27425;BME280;15244;49.088;11.886;2022-10-04T01:58:29;96485.78;;;11.04;50.40
27425;BME280;15244;49.088;11.886;2022-10-04T02:03:40;96486.13;;;11.03;50.89
27425;BME280;15244;49.088;11.886;2022-10-04T02:08:49;96505.22;;;11.03;50.83
27425;BME280;15244;49.088;11.886;2022-10-04T02:13:53;96479.47;;;11.00;51.04
27425;BME280;15244;49.088;11.886;2022-10-04T02:18:56;96469.72;;;10.99;51.52
27425;BME280;15244;49.088;11.886;2022-10-04T02:23:58;96468.94;;;10.99;51.51
27425;BME280;15244;49.088;11.886;2022-10-04T02:29:00;96458.72;;;10.96;51.73
27425;BME280;15244;49.088;11.886;2022-10-04T02:34:01;96469.22;;;10.94;51.19
27425;BME280;15244;49.088;11.886;2022-10-04T02:39:11;96474.63;;;10.90;51.36
27425;BME280;15244;49.088;11.886;2022-10-04T02:44:21;96489.78;;;10.88;51.22
27425;BME280;15244;49.088;11.886;2022-10-04T02:49:31;96484.31;;;10.84;51.17
27425;BME280;15244;49.088;11.886;2022-10-04T02:54:59;96483.81;;;10.78;51.28
27425;BME280;15244;49.088;11.886;2022-10-04T03:05:17;96472.69;;;10.64;50.82
27425;BME280;15244;49.088;11.886;2022-10-04T03:10:19;96474.56;;;10.60;50.71
27425;BME280;15244;49.088;11.886;2022-10-04T03:15:20;96465.91;;;10.54;50.73
27425;BME280;15244;49.088;11.886;2022-10-04T03:20:22;96458.03;;;10.49;50.76
27425;BME280;15244;49.088;11.886;2022-10-04T03:25:35;96449.38;;;10.44;50.75
27425;BME280;15244;49.088;11.886;2022-10-04T03:30:42;96461.72;;;10.37;50.68
27425;BME280;15244;49.088;11.886;2022-10-04T03:35:46;96467.47;;;10.32;50.83
27425;BME280;15244;49.088;11.886;2022-10-04T03:41:09;96460.38;;;10.28;50.71
27425;BME280;15244;49.088;11.886;2022-10-04T03:46:12;96463.13;;;10.28;50.90
27425;BME280;15244;49.088;11.886;2022-10-04T03:51:20;96462.69;;;10.26;50.94
27425;BME280;15244;49.088;11.886;2022-10-04T03:56:28;96462.69;;;10.26;51.27
27425;BME280;15244;49.088;11.886;2022-10-04T04:01:48;96483.28;;;10.23;51.56
27425;BME280;15244;49.088;11.886;2022-10-04T04:07:13;96486.78;;;10.24;51.77
27425;BME280;15244;49.088;11.886;2022-10-04T04:12:21;96479.03;;;10.26;52.41
27425;BME280;15244;49.088;11.886;2022-10-04T04:22:28;96472.94;;;10.32;52.59
27425;BME280;15244;49.088;11.886;2022-10-04T04:27:34;96472.19;;;10.35;52.87
27425;BME280;15244;49.088;11.886;2022-10-04T04:32:39;96460.59;;;10.38;52.85
27425;BME280;15244;49.088;11.886;2022-10-04T04:37:42;96447.00;;;10.42;53.37
27425;BME280;15244;49.088;11.886;2022-10-04T04:42:44;96454.44;;;10.45;53.34
27425;BME280;15244;49.088;11.886;2022-10-04T04:47:50;96448.66;;;10.47;53.25
27425;BME280;15244;49.088;11.886;2022-10-04T04:52:55;96460.34;;;10.47;52.98
27425;BME280;15244;49.088;11.886;2022-10-04T04:58:00;96454.88;;;10.47;53.33
27425;BME280;15244;49.088;11.886;2022-10-04T05:03:14;96463.84;;;10.48;52.95
27425;BME280;15244;49.088;11.886;2022-10-04T05:08:20;96468.16;;;10.49;53.25
27425;BME280;15244;49.088;11.886;2022-10-04T05:13:30;96473.22;;;10.50;53.18
27425;BME280;15244;49.088;11.886;2022-10-04T05:18:32;96451.84;;;10.52;53.17
27425;BME280;15244;49.088;11.886;2022-10-04T05:23:34;96447.59;;;10.55;53.53
27425;BME280;15244;49.088;11.886;2022-10-04T05:28:36;96452.69;;;10.56;53.45
27425;BME280;15244;49.088;11.886;2022-10-04T05:33:51;96460.09;;;10.56;52.85
27425;BME280;15244;49.088;11.886;2022-10-04T05:44:25;96479.53;;;10.54;53.20
27425;BME280;15244;49.088;11.886;2022-10-04T05:49:35;96472.91;;;10.55;53.48
27425;BME280;15244;49.088;11.886;2022-10-04T05:54:40;96473.34;;;10.57;53.46
27425;BME280;15244;49.088;11.886;2022-10-04T06:00:07;96473.78;;;10.59;53.16
27425;BME280;15244;49.088;11.886;2022-10-04T06:16:04;96452.50;;;10.69;53.98
27425;BME280;15244;49.088;11.886;2022-10-04T06:21:18;96461.94;;;10.75;54.03
27425;BME280;15244;49.088;11.886;2022-10-04T06:26:23;96461.28;;;10.81;54.35
27425;BME280;15244;49.088;11.886;2022-10-04T06:42:12;96480.19;;;10.97;54.74
27425;BME280;15244;49.088;11.886;2022-10-04T06:47:32;96494.38;;;11.06;55.33
27425;BME280;15244;49.088;11.886;2022-10-04T06:53:25;96508.53;;;11.16;54.98
27425;BME280;15244;49.088;11.886;2022-10-04T06:58:40;96508.69;;;11.26;55.57
27425;BME280;15244;49.088;11.886;2022-10-04T07:03:56;96499.84;;;11.37;55.88
27425;BME280;15244;49.088;11.886;2022-10-04T07:09:02;96509.41;;;11.50;56.34
27425;BME280;15244;49.088;11.886;2022-10-04T07:14:12;96515.34;;;11.59;56.17
27425;BME280;15244;49.088;11.886;2022-10-04T07:29:40;96492.31;;;11.87;56.29
27425;BME280;15244;49.088;11.886;2022-10-04T07:34:52;96496.31;;;11.93;56.28
27425;BME280;15244;49.088;11.886;2022-10-04T07:40:20;96499.47;;;11.99;56.16
27425;BME280;15244;49.088;11.886;2022-10-04T07:45:29;96507.78;;;12.09;56.25
27425;BME280;15244;49.088;11.886;2022-10-04T07:50:39;96490.28;;;12.18;56.47
27425;BME280;15244;49.088;11.886;2022-10-04T07:55:54;96498.56;;;12.25;56.47
27425;BME280;15244;49.088;11.886;2022-10-04T08:01:01;96509.94;;;12.30;56.40
27425;BME280;15244;49.088;11.886;2022-10-04T08:16:35;96511.34;;;12.51;56.62
27425;BME280;15244;49.088;11.886;2022-10-04T08:21:49;96508.28;;;12.60;56.79
27425;BME280;15244;49.088;11.886;2022-10-04T08:27:00;96516.22;;;12.72;56.79
27425;BME280;15244;49.088;11.886;2022-10-04T08:32:08;96542.84;;;12.78;56.79
27425;BME280;15244;49.088;11.886;2022-10-04T08:43:00;96527.38;;;13.00;56.62
27425;BME280;15244;49.088;11.886;2022-10-04T08:48:39;96518.09;;;13.16;56.67
27425;BME280;15244;49.088;11.886;2022-10-04T09:25:52;96521.34;;;14.13;56.13
27425;BME280;15244;49.088;11.886;2022-10-04T09:31:30;96528.44;;;14.24;55.75
27425;BME280;15244;49.088;11.886;2022-10-04T09:37:08;96533.97;;;14.39;55.88
27425;BME280;15244;49.088;11.886;2022-10-04T09:52:56;96545.03;;;14.82;55.04
27425;BME280;15244;49.088;11.886;2022-10-04T10:14:00;96529.72;;;15.27;54.46
27425;BME280;15244;49.088;11.886;2022-10-04T10:19:37;96530.09;;;15.40;54.08
27425;BME280;15244;49.088;11.886;2022-10-04T10:25:16;96539.88;;;15.52;53.53
27425;BME280;15244;49.088;11.886;2022-10-04T10:36:17;96537.13;;;15.73;53.07
27425;BME280;15244;49.088;11.886;2022-10-04T10:46:48;96533.88;;;16.00;52.08
27425;BME280;15244;49.088;11.886;2022-10-04T10:57:05;96545.56;;;16.25;51.64
27425;BME280;15244;49.088;11.886;2022-10-04T11:02:19;96532.91;;;16.39;51.34
27425;BME280;15244;49.088;11.886;2022-10-04T11:39:51;96504.69;;;17.32;49.61
27425;BME280;15244;49.088;11.886;2022-10-04T12:00:48;96498.72;;;17.75;48.13
27425;BME280;15244;49.088;11.886;2022-10-04T12:12:01;96488.28;;;17.93;47.35
27425;BME280;15244;49.088;11.886;2022-10-04T12:17:55;96481.94;;;17.96;47.06
27425;BME280;15244;49.088;11.886;2022-10-04T12:39:25;96463.72;;;18.33;45.84
27425;BME280;15244;49.088;11.886;2022-10-04T13:00:16;96458.59;;;18.59;44.55
27425;BME280;15244;49.088;11.886;2022-10-04T13:05:25;96456.63;;;18.59;44.03
27425;BME280;15244;49.088;11.886;2022-10-04T13:22:03;96463.09;;;18.73;43.13
27425;BME280;15244;49.088;11.886;2022-10-04T13:27:14;96457.50;;;18.80;43.54
27425;BME280;15244;49.088;11.886;2022-10-04T13:32:25;96451.50;;;18.85;43.13
27425;BME280;15244;49.088;11.886;2022-10-04T14:46:59;96451.16;;;20.26;41.88
27425;BME280;15244;49.088;11.886;2022-10-04T15:18:52;96427.59;;;20.87;40.63
27425;BME280;15244;49.088;11.886;2022-10-04T15:23:58;96430.97;;;20.95;40.35
27425;BME280;15244;49.088;11.886;2022-10-04T15:29:13;96428.78;;;21.03;40.34
27425;BME280;15244;49.088;11.886;2022-10-04T15:39:59;96411.88;;;21.13;40.42
27425;BME280;15244;49.088;11.886;2022-10-04T15:50:25;96401.81;;;21.19;40.12
27425;BME280;15244;49.088;11.886;2022-10-04T15:55:30;96397.56;;;21.15;40.42
27425;BME280;15244;49.088;11.886;2022-10-04T16:06:27;96402.88;;;21.09;40.31
27425;BME280;15244;49.088;11.886;2022-10-04T16:12:02;96410.84;;;21.07;40.50
27425;BME280;15244;49.088;11.886;2022-10-04T16:17:23;96408.16;;;21.04;40.62
27425;BME280;15244;49.088;11.886;2022-10-04T16:22:30;96397.69;;;20.95;40.52
27425;BME280;15244;49.088;11.886;2022-10-04T16:38:19;96402.28;;;20.36;40.46
27425;BME280;15244;49.088;11.886;2022-10-04T16:43:26;96398.44;;;20.13;40.76
27425;BME280;15244;49.088;11.886;2022-10-04T16:48:49;96405.31;;;19.89;40.99
27425;BME280;15244;49.088;11.886;2022-10-04T16:53:55;96405.34;;;19.69;41.06
27425;BME280;15244;49.088;11.886;2022-10-04T16:59:03;96416.81;;;19.47;41.50
27425;BME280;15244;49.088;11.886;2022-10-04T17:09:22;96426.69;;;19.05;42.12
27425;BME280;15244;49.088;11.886;2022-10-04T17:19:45;96431.81;;;18.56;42.78
27425;BME280;15244;49.088;11.886;2022-10-04T17:30:52;96437.91;;;18.16;43.01
27425;BME280;15244;49.088;11.886;2022-10-04T17:41:45;96433.59;;;17.85;43.50
27425;BME280;15244;49.088;11.886;2022-10-04T17:52:02;96435.91;;;17.55;43.98
27425;BME280;15244;49.088;11.886;2022-10-04T17:57:27;96445.09;;;17.45;44.25
27425;BME280;15244;49.088;11.886;2022-10-04T18:13:20;96432.03;;;17.15;44.69
27425;BME280;15244;49.088;11.886;2022-10-04T18:18:29;96435.25;;;17.06;44.84
27425;BME280;15244;49.088;11.886;2022-10-04T18:23:37;96437.72;;;16.97;44.74
27425;BME280;15244;49.088;11.886;2022-10-04T18:28:41;96429.91;;;16.88;45.33
27425;BME280;15244;49.088;11.886;2022-10-04T18:33:49;96441.78;;;16.82;44.98
27425;BME280;15244;49.088;11.886;2022-10-04T18:44:10;96439.56;;;16.62;45.71
27425;BME280;15244;49.088;11.886;2022-10-04T18:49:20;96440.81;;;16.54;45.82
27425;BME280;15244;49.088;11.886;2022-10-04T19:05:47;96432.78;;;16.22;45.87
27425;BME280;15244;49.088;11.886;2022-10-04T19:11:18;96435.19;;;16.13;45.95
27425;BME280;15244;49.088;11.886;2022-10-04T19:16:34;96445.09;;;16.03;46.04
27425;BME280;15244;49.088;11.886;2022-10-04T19:22:01;96453.38;;;15.96;46.21
27425;BME280;15244;49.088;11.886;2022-10-04T19:27:29;96453.41;;;15.89;46.66
27425;BME280;15244;49.088;11.886;2022-10-04T19:38:02;96445.22;;;15.74;46.88
27425;BME280;15244;49.088;11.886;2022-10-04T19:43:13;96449.16;;;15.70;47.41
27425;BME280;15244;49.088;11.886;2022-10-04T19:48:21;96456.22;;;15.64;47.35
27425;BME280;15244;49.088;11.886;2022-10-04T19:53:40;96455.84;;;15.58;47.77
27425;BME280;15244;49.088;11.886;2022-10-04T19:58:46;96451.56;;;15.53;47.71
27425;BME280;15244;49.088;11.886;2022-10-04T20:03:52;96455.50;;;15.49;47.79
27425;BME280;15244;49.088;11.886;2022-10-04T20:19:39;96472.00;;;15.38;48.17
27425;BME280;15244;49.088;11.886;2022-10-04T20:34:53;96488.91;;;15.26;47.79
27425;BME280;15244;49.088;11.886;2022-10-04T20:39:55;96489.31;;;15.21;48.36
27425;BME280;15244;49.088;11.886;2022-10-04T20:55:31;96489.75;;;15.05;48.64
27425;BME280;15244;49.088;11.886;2022-10-04T21:00:33;96494.03;;;14.99;48.65
27425;BME280;15244;49.088;11.886;2022-10-04T21:05:35;96504.25;;;14.91;48.94
27425;BME280;15244;49.088;11.886;2022-10-04T21:10:37;96513.66;;;14.83;48.94
27425;BME280;15244;49.088;11.886;2022-10-04T21:15:54;96508.56;;;14.78;49.13
27425;BME280;15244;49.088;11.886;2022-10-04T21:20:55;96508.94;;;14.72;48.95
27425;BME280;15244;49.088;11.886;2022-10-04T21:26:20;96514.44;;;14.69;49.58
27425;BME280;15244;49.088;11.886;2022-10-04T21:31:22;96499.16;;;14.64;49.75
27425;BME280;15244;49.088;11.886;2022-10-04T21:36:23;96509.72;;;14.62;49.43
27425;BME280;15244;49.088;11.886;2022-10-04T21:41:25;96505.03;;;14.59;49.67
27425;BME280;15244;49.088;11.886;2022-10-04T21:46:26;96516.38;;;14.58;49.93
27425;BME280;15244;49.088;11.886;2022-10-04T21:51:28;96511.31;;;14.56;49.88
27425;BME280;15244;49.088;11.886;2022-10-04T21:56:33;96515.63;;;14.54;49.50
27425;BME280;15244;49.088;11.886;2022-10-04T22:01:34;96519.50;;;14.49;49.77
27425;BME280;15244;49.088;11.886;2022-10-04T22:06:36;96517.13;;;14.44;49.64
27425;BME280;15244;49.088;11.886;2022-10-04T22:11:38;96512.81;;;14.43;49.92
27425;BME280;15244;49.088;11.886;2022-10-04T22:16:39;96521.03;;;14.43;50.18
27425;BME280;15244;49.088;11.886;2022-10-04T22:21:41;96517.91;;;14.41;50.14
27425;BME280;15244;49.088;11.886;2022-10-04T22:26:42;96519.84;;;14.40;49.80
27425;BME280;15244;49.088;11.886;2022-10-04T22:31:51;96514.38;;;14.37;49.83
27425;BME280;15244;49.088;11.886;2022-10-04T22:36:53;96511.22;;;14.35;50.16
27425;BME280;15244;49.088;11.886;2022-10-04T22:41:57;96504.19;;;14.34;50.31
27425;BME280;15244;49.088;11.886;2022-10-04T22:47:02;96511.59;;;14.29;50.14
27425;BME280;15244;49.088;11.886;2022-10-04T22:52:13;96517.47;;;14.28;50.31
27425;BME280;15244;49.088;11.886;2022-10-04T22:57:18;96517.09;;;14.26;50.35
27425;BME280;15244;49.088;11.886;2022-10-04T23:02:22;96516.28;;;14.25;50.33
27425;BME280;15244;49.088;11.886;2022-10-04T23:07:26;96518.66;;;14.23;49.93
27425;BME280;15244;49.088;11.886;2022-10-04T23:12:28;96510.81;;;14.18;50.54
27425;BME280;15244;49.088;11.886;2022-10-04T23:17:35;96511.97;;;14.17;50.66
27425;BME280;15244;49.088;11.886;2022-10-04T23:22:42;96508.44;;;14.13;50.39
27425;BME280;15244;49.088;11.886;2022-10-04T23:27:46;96500.19;;;14.09;50.56
27425;BME280;15244;49.088;11.886;2022-10-04T23:32:49;96499.00;;;14.07;50.46
27425;BME280;15244;49.088;11.886;2022-10-04T23:37:52;96486.09;;;14.04;50.60
27425;BME280;15244;49.088;11.886;2022-10-04T23:42:55;96471.19;;;13.98;50.47
27425;BME280;15244;49.088;11.886;2022-10-04T23:47:58;96464.91;;;13.94;50.58
27425;BME280;15244;49.088;11.886;2022-10-04T23:53:03;96465.28;;;13.88;50.69
27425;BME280;15244;49.088;11.886;2022-10-04T23:58:18;96468.41;;;13.83;50.78
